sensor_id;sensor_type;location;lat;lon;timestamp;pressure;altitude;pressure_sealevel;temperature;humidity
51249;BME280;39642;47.556;18.728;2023-01-27T00:00:33;99611.47;;;21.67;32.22
51249;BME280;39642;47.556;18.728;2023-01-27T00:02:59;99616.78;;;21.67;32.29
51249;BME280;39642;47.556;18.728;2023-01-27T00:05:25;99611.47;;;21.67;31.47
51249;BME280;39642;47.556;18.728;2023-01-27T00:07:51;99605.34;;;21.66;32.21
51249;BME280;39642;47.556;18.728;2023-01-27T00:10:18;99612.41;;;21.66;31.74
51249;BME280;39642;47.556;18.728;2023-01-27T00:12:46;99612.41;;;21.66;32.15
51249;BME280;39642;47.556;18.728;2023-01-27T00:15:32;99609.00;;;21.63;32.17
51249;BME280;39642;47.556;18.728;2023-01-27T00:17:58;99599.38;;;21.62;32.04
51249;BME280;39642;47.556;18.728;2023-01-27T00:20:24;99602.03;;;21.62;31.86
51249;BME280;39642;47.556;18.728;2023-01-27T00:23:17;99601.28;;;21.60;32.68
51249;BME280;39642;47.556;18.728;2023-01-27T00:26:03;99601.28;;;21.60;32.40
51249;BME280;39642;47.556;18.728;2023-01-27T00:28:34;99597.78;;;21.60;32.16
51249;BME280;39642;47.556;18.728;2023-01-27T00:31:01;99596.06;;;21.59;32.17
51249;BME280;39642;47.556;18.728;2023-01-27T00:33:28;99589.00;;;21.59;32.53
51249;BME280;39642;47.556;18.728;2023-01-27T00:36:01;99587.28;;;21.58;32.33
51249;BME280;39642;47.556;18.728;2023-01-27T00:38:29;99591.75;;;21.58;32.19
51249;BME280;39642;47.556;18.728;2023-01-27T00:40:55;99597.03;;;21.58;32.77
51249;BME280;39642;47.556;18.728;2023-01-27T00:43:40;99595.31;;;21.57;32.60
51249;BME280;39642;47.556;18.728;2023-01-27T00:46:06;99598.84;;;21.57;32.33
51249;BME280;39642;47.556;18.728;2023-01-27T00:48:33;99598.72;;;21.59;32.33
51249;BME280;39642;47.556;18.728;2023-01-27T00:50:59;99596.06;;;21.59;32.33
51249;BME280;39642;47.556;18.728;2023-01-27T00:53:25;99596.94;;;21.59;32.16
51249;BME280;39642;47.556;18.728;2023-01-27T00:55:51;99601.28;;;21.60;32.04
51249;BME280;39642;47.556;18.728;2023-01-27T00:58:17;99598.53;;;21.62;32.03
51249;BME280;39642;47.556;18.728;2023-01-27T01:00:43;99596.72;;;21.62;32.12
51249;BME280;39642;47.556;18.728;2023-01-27T01:03:09;99598.41;;;21.63;32.02
51249;BME280;39642;47.556;18.728;2023-01-27T01:05:35;99600.13;;;21.65;32.14
51249;BME280;39642;47.556;18.728;2023-01-27T01:08:01;99604.47;;;21.66;32.17
51249;BME280;39642;47.556;18.728;2023-01-27T01:10:27;99593.88;;;21.66;32.19
51249;BME280;39642;47.556;18.728;2023-01-27T01:12:53;99595.59;;;21.67;32.15
51249;BME280;39642;47.556;18.728;2023-01-27T01:15:19;99597.25;;;21.68;32.07
51249;BME280;39642;47.556;18.728;2023-01-27T01:17:45;99599.06;;;21.67;31.94
51249;BME280;39642;47.556;18.728;2023-01-27T01:20:11;99590.28;;;21.67;32.14
51249;BME280;39642;47.556;18.728;2023-01-27T01:22:37;99589.31;;;21.68;32.22
51249;BME280;39642;47.556;18.728;2023-01-27T01:25:03;99590.28;;;21.67;31.54
51249;BME280;39642;47.556;18.728;2023-01-27T01:27:29;99584.97;;;21.67;31.94
51249;BME280;39642;47.556;18.728;2023-01-27T01:29:55;99592.09;;;21.66;31.99
51249;BME280;39642;47.556;18.728;2023-01-27T01:32:21;99587.72;;;21.65;31.20
51249;BME280;39642;47.556;18.728;2023-01-27T01:34:47;99585.16;;;21.63;31.60
51249;BME280;39642;47.556;18.728;2023-01-27T01:37:13;99585.16;;;21.63;31.53
51249;BME280;39642;47.556;18.728;2023-01-27T01:39:39;99587.81;;;21.63;31.66
51249;BME280;39642;47.556;18.728;2023-01-27T01:42:05;99580.00;;;21.62;31.78
51249;BME280;39642;47.556;18.728;2023-01-27T01:44:31;99586.12;;;21.62;32.37
51249;BME280;39642;47.556;18.728;2023-01-27T01:46:57;99580.94;;;21.61;32.07
51249;BME280;39642;47.556;18.728;2023-01-27T01:49:31;99578.28;;;21.61;32.14
51249;BME280;39642;47.556;18.728;2023-01-27T01:52:03;99575.75;;;21.59;32.02
51249;BME280;39642;47.556;18.728;2023-01-27T01:54:47;99571.38;;;21.58;31.98
51249;BME280;39642;47.556;18.728;2023-01-27T01:57:20;99581.97;;;21.58;32.23
51249;BME280;39642;47.556;18.728;2023-01-27T02:00:01;99575.84;;;21.58;32.38
51249;BME280;39642;47.556;18.728;2023-01-27T02:02:28;99577.66;;;21.57;32.45
51249;BME280;39642;47.556;18.728;2023-01-27T02:10:14;99585.59;;;21.57;31.81
51249;BME280;39642;47.556;18.728;2023-01-27T02:12:40;99588.25;;;21.57;31.99
51249;BME280;39642;47.556;18.728;2023-01-27T02:15:07;99580.28;;;21.57;32.10
51249;BME280;39642;47.556;18.728;2023-01-27T02:17:34;99570.53;;;21.58;31.88
51249;BME280;39642;47.556;18.728;2023-01-27T02:20:22;99574.87;;;21.59;31.94
51249;BME280;39642;47.556;18.728;2023-01-27T02:28:00;99565.78;;;21.63;31.82
51249;BME280;39642;47.556;18.728;2023-01-27T02:30:27;99555.19;;;21.63;31.81
51249;BME280;39642;47.556;18.728;2023-01-27T02:32:53;99560.38;;;21.65;32.02
51249;BME280;39642;47.556;18.728;2023-01-27T02:35:24;99556.91;;;21.64;31.94
51249;BME280;39642;47.556;18.728;2023-01-27T02:37:55;99549.78;;;21.65;31.60
51249;BME280;39642;47.556;18.728;2023-01-27T02:40:22;99556.78;;;21.66;31.76
51249;BME280;39642;47.556;18.728;2023-01-27T02:42:49;99556.78;;;21.66;31.71
51249;BME280;39642;47.556;18.728;2023-01-27T02:45:15;99554.13;;;21.66;31.41
51249;BME280;39642;47.556;18.728;2023-01-27T02:47:41;99540.88;;;21.66;31.80
51249;BME280;39642;47.556;18.728;2023-01-27T02:50:07;99552.34;;;21.66;31.52
51249;BME280;39642;47.556;18.728;2023-01-27T02:52:33;99536.53;;;21.65;32.11
51249;BME280;39642;47.556;18.728;2023-01-27T02:54:59;99524.22;;;21.63;31.70
51249;BME280;39642;47.556;18.728;2023-01-27T02:57:25;99521.56;;;21.63;31.80
51249;BME280;39642;47.556;18.728;2023-01-27T02:59:51;99523.38;;;21.63;31.39
51249;BME280;39642;47.556;18.728;2023-01-27T03:02:17;99521.69;;;21.62;31.68
51249;BME280;39642;47.556;18.728;2023-01-27T03:04:48;99514.69;;;21.61;31.17
51249;BME280;39642;47.556;18.728;2023-01-27T03:07:14;99511.19;;;21.60;32.07
51249;BME280;39642;47.556;18.728;2023-01-27T03:09:40;99519.16;;;21.60;31.87
51249;BME280;39642;47.556;18.728;2023-01-27T03:12:06;99513.00;;;21.60;31.59
51249;BME280;39642;47.556;18.728;2023-01-27T03:14:45;99514.81;;;21.59;32.10
51249;BME280;39642;47.556;18.728;2023-01-27T03:17:29;99513.94;;;21.59;31.62
51249;BME280;39642;47.556;18.728;2023-01-27T03:20:14;99508.75;;;21.57;32.28
51249;BME280;39642;47.556;18.728;2023-01-27T03:22:40;99510.53;;;21.57;31.63
51249;BME280;39642;47.556;18.728;2023-01-27T03:25:06;99515.00;;;21.56;31.63
51249;BME280;39642;47.556;18.728;2023-01-27T03:27:32;99507.06;;;21.56;31.76
51249;BME280;39642;47.556;18.728;2023-01-27T03:29:58;99509.69;;;21.56;31.68
51249;BME280;39642;47.556;18.728;2023-01-27T03:32:27;99501.75;;;21.56;31.52
51249;BME280;39642;47.556;18.728;2023-01-27T03:34:53;99497.28;;;21.57;31.68
51249;BME280;39642;47.556;18.728;2023-01-27T03:37:23;99498.16;;;21.57;31.48
51249;BME280;39642;47.556;18.728;2023-01-27T03:40:08;99497.19;;;21.58;31.54
51249;BME280;39642;47.556;18.728;2023-01-27T03:42:53;99498.91;;;21.59;31.59
51249;BME280;39642;47.556;18.728;2023-01-27T03:45:38;99492.66;;;21.60;31.60
51249;BME280;39642;47.556;18.728;2023-01-27T03:48:25;99493.41;;;21.62;31.41
51249;BME280;39642;47.556;18.728;2023-01-27T03:50:59;99481.00;;;21.63;30.96
51249;BME280;39642;47.556;18.728;2023-01-27T03:53:25;99477.41;;;21.64;31.39
51249;BME280;39642;47.556;18.728;2023-01-27T03:55:50;99486.19;;;21.65;31.34
51249;BME280;39642;47.556;18.728;2023-01-27T03:58:23;99488.75;;;21.66;30.98
51249;BME280;39642;47.556;18.728;2023-01-27T04:00:52;99489.59;;;21.67;31.40
51249;BME280;39642;47.556;18.728;2023-01-27T04:03:21;99481.63;;;21.67;31.19
51249;BME280;39642;47.556;18.728;2023-01-27T04:06:14;99482.47;;;21.67;31.11
51249;BME280;39642;47.556;18.728;2023-01-27T04:08:59;99473.56;;;21.68;30.50
51249;BME280;39642;47.556;18.728;2023-01-27T04:11:25;99469.22;;;21.67;30.78
51249;BME280;39642;47.556;18.728;2023-01-27T04:14:11;99470.19;;;21.66;30.42
51249;BME280;39642;47.556;18.728;2023-01-27T04:16:37;99472.84;;;21.66;30.68
51249;BME280;39642;47.556;18.728;2023-01-27T04:19:06;99469.31;;;21.66;31.00
51249;BME280;39642;47.556;18.728;2023-01-27T04:21:32;99470.28;;;21.65;30.90
51249;BME280;39642;47.556;18.728;2023-01-27T04:23:59;99479.19;;;21.63;31.64
51249;BME280;39642;47.556;18.728;2023-01-27T04:26:26;99467.75;;;21.63;30.80
51249;BME280;39642;47.556;18.728;2023-01-27T04:28:59;99465.19;;;21.61;31.38
51249;BME280;39642;47.556;18.728;2023-01-27T04:31:25;99466.16;;;21.60;31.20
51249;BME280;39642;47.556;18.728;2023-01-27T04:33:51;99467.84;;;21.61;30.66
51249;BME280;39642;47.556;18.728;2023-01-27T04:36:17;99466.25;;;21.59;30.97
51249;BME280;39642;47.556;18.728;2023-01-27T04:38:43;99460.09;;;21.58;31.21
51249;BME280;39642;47.556;18.728;2023-01-27T04:41:09;99464.56;;;21.58;30.71
51249;BME280;39642;47.556;18.728;2023-01-27T04:43:35;99469.03;;;21.57;30.65
51249;BME280;39642;47.556;18.728;2023-01-27T04:46:02;99468.16;;;21.57;30.69
51249;BME280;39642;47.556;18.728;2023-01-27T04:48:27;99467.31;;;21.56;30.84
51249;BME280;39642;47.556;18.728;2023-01-27T04:50:53;99466.47;;;21.56;31.04
51249;BME280;39642;47.556;18.728;2023-01-27T04:53:19;99464.78;;;21.55;30.52
51249;BME280;39642;47.556;18.728;2023-01-27T04:55:47;99459.50;;;21.55;30.77
51249;BME280;39642;47.556;18.728;2023-01-27T04:58:14;99462.22;;;21.53;30.44
51249;BME280;39642;47.556;18.728;2023-01-27T05:00:41;99458.63;;;21.54;30.70
51249;BME280;39642;47.556;18.728;2023-01-27T05:03:07;99463.91;;;21.54;30.35
51249;BME280;39642;47.556;18.728;2023-01-27T05:05:35;99462.22;;;21.53;30.74
51249;BME280;39642;47.556;18.728;2023-01-27T05:08:03;99461.38;;;21.53;30.10
51249;BME280;39642;47.556;18.728;2023-01-27T05:10:29;99470.19;;;21.53;30.02
51249;BME280;39642;47.556;18.728;2023-01-27T05:12:54;99475.47;;;21.53;30.67
51249;BME280;39642;47.556;18.728;2023-01-27T05:15:20;99483.44;;;21.53;30.23
51249;BME280;39642;47.556;18.728;2023-01-27T05:17:46;99481.63;;;21.54;30.13
51249;BME280;39642;47.556;18.728;2023-01-27T05:20:12;99485.09;;;21.54;30.25
51249;BME280;39642;47.556;18.728;2023-01-27T05:22:38;99480.69;;;21.55;30.48
51249;BME280;39642;47.556;18.728;2023-01-27T05:25:04;99481.53;;;21.55;29.66
51249;BME280;39642;47.556;18.728;2023-01-27T05:27:30;99490.31;;;21.56;29.71
51249;BME280;39642;47.556;18.728;2023-01-27T05:29:56;99488.50;;;21.56;29.67
51249;BME280;39642;47.556;18.728;2023-01-27T05:32:23;99489.25;;;21.58;29.80
51249;BME280;39642;47.556;18.728;2023-01-27T05:34:48;99488.31;;;21.59;30.20
51249;BME280;39642;47.556;18.728;2023-01-27T05:37:14;99489.03;;;21.61;30.51
51249;BME280;39642;47.556;18.728;2023-01-27T05:39:40;99487.25;;;21.62;29.91
51249;BME280;39642;47.556;18.728;2023-01-27T05:42:06;99487.25;;;21.62;29.87
51249;BME280;39642;47.556;18.728;2023-01-27T05:44:32;99482.72;;;21.64;29.75
51249;BME280;39642;47.556;18.728;2023-01-27T05:46:58;99478.25;;;21.65;29.77
51249;BME280;39642;47.556;18.728;2023-01-27T05:49:24;99482.56;;;21.66;29.96
51249;BME280;39642;47.556;18.728;2023-01-27T05:51:50;99486.19;;;21.65;29.34
51249;BME280;39642;47.556;18.728;2023-01-27T05:54:15;99488.75;;;21.66;29.54
51249;BME280;39642;47.556;18.728;2023-01-27T05:56:41;99490.44;;;21.67;30.60
51249;BME280;39642;47.556;18.728;2023-01-27T05:59:09;99492.13;;;21.68;29.84
51249;BME280;39642;47.556;18.728;2023-01-27T06:01:35;99488.75;;;21.66;30.70
51249;BME280;39642;47.556;18.728;2023-01-27T06:04:02;99488.75;;;21.66;30.02
51249;BME280;39642;47.556;18.728;2023-01-27T06:06:30;99490.44;;;21.67;29.76
51249;BME280;39642;47.556;18.728;2023-01-27T06:08:56;99486.94;;;21.67;29.98
51249;BME280;39642;47.556;18.728;2023-01-27T06:11:23;99494.75;;;21.68;30.95
51249;BME280;39642;47.556;18.728;2023-01-27T06:13:51;99499.22;;;21.68;30.53
51249;BME280;39642;47.556;18.728;2023-01-27T06:16:19;99491.28;;;21.68;31.44
51249;BME280;39642;47.556;18.728;2023-01-27T06:18:46;99490.34;;;21.69;31.53
51249;BME280;39642;47.556;18.728;2023-01-27T06:21:14;99499.88;;;21.71;31.04
51249;BME280;39642;47.556;18.728;2023-01-27T06:23:40;99494.44;;;21.73;31.85
51249;BME280;39642;47.556;18.728;2023-01-27T06:26:08;99495.31;;;21.73;31.61
51249;BME280;39642;47.556;18.728;2023-01-27T06:28:38;99503.06;;;21.76;32.33
51249;BME280;39642;47.556;18.728;2023-01-27T06:31:12;99500.41;;;21.76;32.37
51249;BME280;39642;47.556;18.728;2023-01-27T06:33:39;99506.53;;;21.77;32.75
51249;BME280;39642;47.556;18.728;2023-01-27T06:36:08;99509.31;;;21.75;32.19
51249;BME280;39642;47.556;18.728;2023-01-27T06:38:34;99506.66;;;21.75;32.26
51249;BME280;39642;47.556;18.728;2023-01-27T06:41:00;99504.97;;;21.74;32.02
51249;BME280;39642;47.556;18.728;2023-01-27T06:43:26;99506.75;;;21.74;32.47
51249;BME280;39642;47.556;18.728;2023-01-27T06:45:52;99503.16;;;21.75;33.20
51249;BME280;39642;47.556;18.728;2023-01-27T06:48:18;99512.06;;;21.74;32.24
51249;BME280;39642;47.556;18.728;2023-01-27T06:50:44;99505.28;;;21.70;32.88
51249;BME280;39642;47.556;18.728;2023-01-27T06:53:10;99504.44;;;21.69;33.64
51249;BME280;39642;47.556;18.728;2023-01-27T06:55:37;99507.16;;;21.68;32.20
51249;BME280;39642;47.556;18.728;2023-01-27T06:58:10;99502.72;;;21.68;33.35
51249;BME280;39642;47.556;18.728;2023-01-27T07:00:38;99500.94;;;21.69;32.35
51249;BME280;39642;47.556;18.728;2023-01-27T07:03:04;99499.88;;;21.71;32.33
51249;BME280;39642;47.556;18.728;2023-01-27T07:05:31;99501.69;;;21.71;32.15
51249;BME280;39642;47.556;18.728;2023-01-27T07:07:58;99498.06;;;21.72;31.86
51249;BME280;39642;47.556;18.728;2023-01-27T07:10:24;99502.41;;;21.73;31.09
51249;BME280;39642;47.556;18.728;2023-01-27T07:12:50;99501.47;;;21.74;30.76
51249;BME280;39642;47.556;18.728;2023-01-27T07:15:16;99503.16;;;21.75;30.08
51249;BME280;39642;47.556;18.728;2023-01-27T07:17:42;99496.91;;;21.76;30.01
51249;BME280;39642;47.556;18.728;2023-01-27T07:20:11;99497.75;;;21.76;30.16
51249;BME280;39642;47.556;18.728;2023-01-27T07:22:37;99497.66;;;21.78;30.30
51249;BME280;39642;47.556;18.728;2023-01-27T07:25:04;99496.69;;;21.79;30.43
51249;BME280;39642;47.556;18.728;2023-01-27T07:27:31;99496.59;;;21.80;30.62
51249;BME280;39642;47.556;18.728;2023-01-27T07:29:57;99500.94;;;21.81;30.61
51249;BME280;39642;47.556;18.728;2023-01-27T07:32:23;99505.37;;;21.81;30.64
51249;BME280;39642;47.556;18.728;2023-01-27T07:34:49;99508.78;;;21.83;30.67
51249;BME280;39642;47.556;18.728;2023-01-27T07:37:15;99505.06;;;21.86;30.79
51249;BME280;39642;47.556;18.728;2023-01-27T07:39:41;99505.06;;;21.86;31.24
51249;BME280;39642;47.556;18.728;2023-01-27T07:42:07;99508.56;;;21.86;31.13
51249;BME280;39642;47.556;18.728;2023-01-27T07:44:33;99509.31;;;21.88;31.18
51249;BME280;39642;47.556;18.728;2023-01-27T07:46:59;99515.47;;;21.89;31.55
51249;BME280;39642;47.556;18.728;2023-01-27T07:49:25;99514.50;;;21.90;31.59
51249;BME280;39642;47.556;18.728;2023-01-27T07:51:51;99509.12;;;21.91;31.73
51249;BME280;39642;47.556;18.728;2023-01-27T07:54:18;99515.78;;;21.97;32.37
51249;BME280;39642;47.556;18.728;2023-01-27T07:56:44;99511.44;;;21.96;34.02
51249;BME280;39642;47.556;18.728;2023-01-27T07:59:11;99512.28;;;21.96;32.14
51249;BME280;39642;47.556;18.728;2023-01-27T08:01:37;99511.22;;;21.99;32.43
51249;BME280;39642;47.556;18.728;2023-01-27T08:04:06;99509.53;;;21.98;31.95
51249;BME280;39642;47.556;18.728;2023-01-27T08:06:31;99499.78;;;21.98;31.83
51249;BME280;39642;47.556;18.728;2023-01-27T08:08:57;99496.28;;;21.98;31.88
51249;BME280;39642;47.556;18.728;2023-01-27T08:11:25;99496.38;;;21.96;31.58
51249;BME280;39642;47.556;18.728;2023-01-27T08:13:51;99497.44;;;21.94;32.01
51249;BME280;39642;47.556;18.728;2023-01-27T08:16:17;99493.22;;;21.91;31.36
51249;BME280;39642;47.556;18.728;2023-01-27T08:18:43;99492.47;;;21.89;31.52
51249;BME280;39642;47.556;18.728;2023-01-27T08:21:10;99498.84;;;21.87;31.83
51249;BME280;39642;47.556;18.728;2023-01-27T08:23:37;99501.34;;;21.88;32.16
51249;BME280;39642;47.556;18.728;2023-01-27T08:26:04;99497.03;;;21.87;32.66
51249;BME280;39642;47.556;18.728;2023-01-27T08:28:32;99504.00;;;21.88;32.82
51249;BME280;39642;47.556;18.728;2023-01-27T08:31:14;99507.63;;;21.87;32.98
51249;BME280;39642;47.556;18.728;2023-01-27T08:33:42;99504.00;;;21.88;33.09
51249;BME280;39642;47.556;18.728;2023-01-27T08:36:16;99504.87;;;21.89;32.83
51249;BME280;39642;47.556;18.728;2023-01-27T08:38:43;99504.00;;;21.88;32.74
51249;BME280;39642;47.556;18.728;2023-01-27T08:41:12;99504.87;;;21.89;33.43
51249;BME280;39642;47.556;18.728;2023-01-27T08:43:39;99511.97;;;21.88;34.01
51249;BME280;39642;47.556;18.728;2023-01-27T08:46:05;99508.47;;;21.88;34.74
51249;BME280;39642;47.556;18.728;2023-01-27T08:48:32;99511.03;;;21.89;34.67
51249;BME280;39642;47.556;18.728;2023-01-27T08:50:58;99507.63;;;21.87;33.75
51249;BME280;39642;47.556;18.728;2023-01-27T08:53:25;99503.25;;;21.86;33.49
51249;BME280;39642;47.556;18.728;2023-01-27T08:55:55;99510.47;;;21.84;32.99
51249;BME280;39642;47.556;18.728;2023-01-27T08:58:21;99507.19;;;21.80;33.58
51249;BME280;39642;47.556;18.728;2023-01-27T09:00:47;99507.19;;;21.80;34.83
51249;BME280;39642;47.556;18.728;2023-01-27T09:03:13;99510.69;;;21.81;33.83
51249;BME280;39642;47.556;18.728;2023-01-27T09:05:39;99501.81;;;21.82;33.75
51249;BME280;39642;47.556;18.728;2023-01-27T09:08:06;99502.62;;;21.82;33.39
51249;BME280;39642;47.556;18.728;2023-01-27T09:10:36;99512.41;;;21.82;33.11
51249;BME280;39642;47.556;18.728;2023-01-27T09:13:03;99515.16;;;21.80;32.73
51249;BME280;39642;47.556;18.728;2023-01-27T09:15:29;99513.34;;;21.81;32.47
51249;BME280;39642;47.556;18.728;2023-01-27T09:17:56;99515.16;;;21.80;32.78
51249;BME280;39642;47.556;18.728;2023-01-27T09:20:22;99513.34;;;21.81;32.73
51249;BME280;39642;47.556;18.728;2023-01-27T09:22:48;99516.00;;;21.81;32.67
51249;BME280;39642;47.556;18.728;2023-01-27T09:25:15;99521.19;;;21.82;32.87
51249;BME280;39642;47.556;18.728;2023-01-27T09:27:43;99527.34;;;21.83;32.60
51249;BME280;39642;47.556;18.728;2023-01-27T09:30:10;99521.06;;;21.84;32.33
51249;BME280;39642;47.556;18.728;2023-01-27T09:32:36;99521.81;;;21.86;31.75
51249;BME280;39642;47.556;18.728;2023-01-27T09:35:02;99522.69;;;21.87;31.68
51249;BME280;39642;47.556;18.728;2023-01-27T09:37:29;99526.09;;;21.89;31.55
51249;BME280;39642;47.556;18.728;2023-01-27T09:40:01;99519.81;;;21.90;31.38
51249;BME280;39642;47.556;18.728;2023-01-27T09:42:50;99525.88;;;21.92;31.87
51249;BME280;39642;47.556;18.728;2023-01-27T09:56:51;99526.19;;;21.87;30.16
51249;BME280;39642;47.556;18.728;2023-01-27T09:59:51;99525.53;;;21.83;30.78
51249;BME280;39642;47.556;18.728;2023-01-27T10:02:45;99517.78;;;21.80;31.43
51249;BME280;39642;47.556;18.728;2023-01-27T10:09:04;99527.75;;;21.77;29.24
51249;BME280;39642;47.556;18.728;2023-01-27T10:11:35;99521.59;;;21.76;30.56
51249;BME280;39642;47.556;18.728;2023-01-27T10:14:18;99522.66;;;21.74;29.42
51249;BME280;39642;47.556;18.728;2023-01-27T10:16:55;99519.28;;;21.72;29.96
51249;BME280;39642;47.556;18.728;2023-01-27T10:22:22;99522.00;;;21.70;29.44
51249;BME280;39642;47.556;18.728;2023-01-27T10:25:01;99515.88;;;21.70;29.73
51249;BME280;39642;47.556;18.728;2023-01-27T10:27:35;99518.44;;;21.71;29.82
51249;BME280;39642;47.556;18.728;2023-01-27T10:32:43;99524.34;;;21.75;30.26
51249;BME280;39642;47.556;18.728;2023-01-27T10:35:14;99521.69;;;21.75;30.03
51249;BME280;39642;47.556;18.728;2023-01-27T10:43:11;99510.47;;;21.71;29.74
51249;BME280;39642;47.556;18.728;2023-01-27T10:48:53;99510.47;;;21.71;30.82
51249;BME280;39642;47.556;18.728;2023-01-27T10:51:32;99514.94;;;21.71;29.51
51249;BME280;39642;47.556;18.728;2023-01-27T10:54:06;99514.19;;;21.69;31.01
51249;BME280;39642;47.556;18.728;2023-01-27T10:56:40;99502.00;;;21.66;31.34
51249;BME280;39642;47.556;18.728;2023-01-27T10:59:17;99506.44;;;21.66;31.11
51249;BME280;39642;47.556;18.728;2023-01-27T11:02:13;99501.03;;;21.67;30.77
51249;BME280;39642;47.556;18.728;2023-01-27T11:04:51;99495.63;;;21.69;30.55
51249;BME280;39642;47.556;18.728;2023-01-27T11:07:20;99490.97;;;21.72;30.62
51249;BME280;39642;47.556;18.728;2023-01-27T11:10:00;99495.19;;;21.75;30.94
51249;BME280;39642;47.556;18.728;2023-01-27T11:12:33;99491.50;;;21.77;31.21
51249;BME280;39642;47.556;18.728;2023-01-27T11:15:01;99489.56;;;21.79;31.57
51249;BME280;39642;47.556;18.728;2023-01-27T11:17:44;99483.25;;;21.82;31.72
51249;BME280;39642;47.556;18.728;2023-01-27T11:20:28;99484.72;;;21.86;32.21
51249;BME280;39642;47.556;18.728;2023-01-27T11:23:00;99475.72;;;21.89;32.32
51249;BME280;39642;47.556;18.728;2023-01-27T11:31:00;99476.25;;;21.94;33.23
51249;BME280;39642;47.556;18.728;2023-01-27T11:33:47;99474.44;;;21.94;33.45
51249;BME280;39642;47.556;18.728;2023-01-27T11:36:16;99469.97;;;21.95;33.51
51249;BME280;39642;47.556;18.728;2023-01-27T11:38:42;99478.78;;;21.95;32.95
51249;BME280;39642;47.556;18.728;2023-01-27T11:41:09;99476.84;;;21.97;33.33
51249;BME280;39642;47.556;18.728;2023-01-27T11:43:35;99473.28;;;21.98;33.13
51249;BME280;39642;47.556;18.728;2023-01-27T11:46:12;99482.91;;;21.99;33.59
51249;BME280;39642;47.556;18.728;2023-01-27T11:48:43;99476.84;;;21.97;33.76
51249;BME280;39642;47.556;18.728;2023-01-27T11:51:19;99478.03;;;22.06;35.23
51249;BME280;39642;47.556;18.728;2023-01-27T11:53:51;99479.41;;;22.12;34.60
51249;BME280;39642;47.556;18.728;2023-01-27T11:56:18;99472.41;;;22.11;33.99
51249;BME280;39642;47.556;18.728;2023-01-27T11:58:49;99465.19;;;22.13;33.04
51249;BME280;39642;47.556;18.728;2023-01-27T12:01:24;99469.66;;;22.12;33.36
51249;BME280;39642;47.556;18.728;2023-01-27T12:03:58;99465.19;;;22.13;33.95
51249;BME280;39642;47.556;18.728;2023-01-27T12:06:33;99464.56;;;22.09;33.35
51249;BME280;39642;47.556;18.728;2023-01-27T12:09:01;99458.84;;;22.02;34.38
51249;BME280;39642;47.556;18.728;2023-01-27T12:11:28;99455.47;;;22.00;34.06
51249;BME280;39642;47.556;18.728;2023-01-27T12:13:57;99449.31;;;22.00;33.25
51249;BME280;39642;47.556;18.728;2023-01-27T12:19:03;99447.81;;;21.96;34.23
51249;BME280;39642;47.556;18.728;2023-01-27T12:22:00;99445.37;;;21.93;33.75
51249;BME280;39642;47.556;18.728;2023-01-27T12:24:31;99444.00;;;21.87;33.95
51249;BME280;39642;47.556;18.728;2023-01-27T12:26:58;99442.53;;;21.83;33.73
51249;BME280;39642;47.556;18.728;2023-01-27T12:29:47;99436.37;;;21.82;33.47
51249;BME280;39642;47.556;18.728;2023-01-27T12:32:42;99433.59;;;21.84;32.55
51249;BME280;39642;47.556;18.728;2023-01-27T12:35:23;99435.22;;;21.87;32.84
51249;BME280;39642;47.556;18.728;2023-01-27T12:38:20;99439.56;;;21.88;32.63
51249;BME280;39642;47.556;18.728;2023-01-27T12:40:56;99430.00;;;21.85;32.69
51249;BME280;39642;47.556;18.728;2023-01-27T12:43:23;99428.09;;;21.87;32.99
51249;BME280;39642;47.556;18.728;2023-01-27T12:46:22;99421.97;;;21.87;33.69
51249;BME280;39642;47.556;18.728;2023-01-27T12:48:50;99430.66;;;21.89;33.83
51249;BME280;39642;47.556;18.728;2023-01-27T12:51:22;99423.31;;;21.92;33.76
51249;BME280;39642;47.556;18.728;2023-01-27T12:53:49;99413.47;;;21.94;33.67
51249;BME280;39642;47.556;18.728;2023-01-27T12:56:18;99409.75;;;21.97;33.52
51249;BME280;39642;47.556;18.728;2023-01-27T12:58:58;99421.09;;;21.99;34.25
51249;BME280;39642;47.556;18.728;2023-01-27T13:01:34;99420.03;;;22.01;35.10
51249;BME280;39642;47.556;18.728;2023-01-27T13:04:19;99417.38;;;22.01;35.08
51249;BME280;39642;47.556;18.728;2023-01-27T13:06:56;99420.66;;;22.05;34.96
51249;BME280;39642;47.556;18.728;2023-01-27T13:09:32;99423.22;;;22.07;34.77
51249;BME280;39642;47.556;18.728;2023-01-27T13:12:03;99420.34;;;22.10;34.68
51249;BME280;39642;47.556;18.728;2023-01-27T13:14:34;99413.97;;;22.12;34.40
51249;BME280;39642;47.556;18.728;2023-01-27T13:17:04;99419.16;;;22.14;34.83
51249;BME280;39642;47.556;18.728;2023-01-27T13:19:36;99415.66;;;22.13;34.54
51249;BME280;39642;47.556;18.728;2023-01-27T13:22:05;99418.19;;;22.15;34.54
51249;BME280;39642;47.556;18.728;2023-01-27T13:24:36;99413.72;;;22.15;34.73
51249;BME280;39642;47.556;18.728;2023-01-27T13:27:11;99424.25;;;22.17;34.61
51249;BME280;39642;47.556;18.728;2023-01-27T13:29:39;99417.25;;;22.16;34.60
51249;BME280;39642;47.556;18.728;2023-01-27T13:35:12;99432.53;;;22.12;34.34
51249;BME280;39642;47.556;18.728;2023-01-27T13:37:55;99439.63;;;22.12;34.15
51249;BME280;39642;47.556;18.728;2023-01-27T13:43:00;99446.63;;;22.13;34.15
51249;BME280;39642;47.556;18.728;2023-01-27T13:45:40;99445.03;;;22.10;34.12
51249;BME280;39642;47.556;18.728;2023-01-27T13:48:11;99452.06;;;22.11;35.03
51249;BME280;39642;47.556;18.728;2023-01-27T13:53:36;99451.19;;;22.11;35.42
51249;BME280;39642;47.556;18.728;2023-01-27T14:07:28;99448.34;;;22.14;36.20
51249;BME280;39642;47.556;18.728;2023-01-27T14:09:40;99459.69;;;22.16;36.33
51249;BME280;39642;47.556;18.728;2023-01-27T14:12:25;99458.81;;;22.15;36.41